Time;durP1;ratioP1;P1;durP2;ratioP2;P2;SDS_P1;SDS_P2;PMS_P1;PMS_P2;Temp;Humidity;BMP_temperature;BMP_pressure;BME280_temperature;BME280_humidity;BME280_pressure;Samples;Min_cycle;Max_cycle;Signal;HPM_P1;HPM_P2
2022/01/05 00:00:31;;;;;;;9.83;1.20;;;2.60;99.90;;;;;;5107158;28;20286;-59
2022/01/05 00:02:57;;;;;;;11.80;1.80;;;2.60;99.90;;;;;;5100585;28;20681;-58
2022/01/05 00:05:22;;;;;;;9.97;1.47;;;2.60;99.90;;;;;;5101091;28;20035;-57
2022/01/05 00:07:48;;;;;;;9.43;1.10;;;2.70;99.90;;;;;;5097525;28;20040;-59
2022/01/05 00:10:14;;;;;;;7.37;0.83;;;2.60;99.90;;;;;;5104430;28;20036;-57
2022/01/05 00:12:39;;;;;;;12.65;1.50;;;2.70;99.90;;;;;;5106502;28;20092;-58
2022/01/05 00:15:06;;;;;;;12.23;1.03;;;2.60;99.90;;;;;;5084619;28;20104;-59
2022/01/05 00:17:32;;;;;;;16.10;2.90;;;2.60;99.90;;;;;;5085072;28;20309;-58
2022/01/05 00:19:57;;;;;;;5.28;0.90;;;2.60;99.90;;;;;;5101337;28;20082;-58
2022/01/05 00:22:23;;;;;;;12.67;2.37;;;2.60;99.90;;;;;;5100445;28;20451;-59
2022/01/05 00:24:49;;;;;;;9.17;1.03;;;2.60;99.90;;;;;;5105818;28;20059;-59
2022/01/05 00:27:14;;;;;;;16.03;2.20;;;2.60;99.90;;;;;;5100672;28;20052;-59
2022/01/05 00:29:40;;;;;;;9.00;1.15;;;2.70;99.90;;;;;;5103487;28;20073;-57
2022/01/05 00:32:07;;;;;;;8.40;1.40;;;2.70;99.90;;;;;;5100701;28;20108;-58
2022/01/05 00:34:33;;;;;;;14.50;2.00;;;2.70;99.90;;;;;;5083294;28;20775;-58
2022/01/05 00:36:59;;;;;;;21.83;2.27;;;2.80;99.90;;;;;;5105494;28;20294;-57
2022/01/05 00:39:24;;;;;;;8.90;0.93;;;2.80;99.90;;;;;;5100714;28;20730;-58
2022/01/05 00:41:50;;;;;;;11.33;1.20;;;2.80;99.90;;;;;;5100735;28;20064;-59
2022/01/05 00:44:15;;;;;;;10.47;0.87;;;2.80;99.90;;;;;;5105781;28;20554;-58
2022/01/05 00:46:41;;;;;;;8.73;0.63;;;2.90;99.90;;;;;;5097018;28;20439;-58
2022/01/05 00:49:06;;;;;;;4.40;0.70;;;2.90;99.90;;;;;;5104305;28;20040;-59
2022/01/05 00:51:32;;;;;;;10.57;0.93;;;2.90;99.90;;;;;;5102361;28;20453;-58
2022/01/05 00:53:57;;;;;;;11.33;0.93;;;2.90;99.90;;;;;;5086830;28;20069;-58
2022/01/05 00:56:23;;;;;;;6.73;1.63;;;2.90;99.90;;;;;;5109185;28;20106;-59
2022/01/05 00:58:49;;;;;;;10.07;1.20;;;2.90;99.90;;;;;;5082042;28;20040;-57
2022/01/05 01:01:14;;;;;;;10.13;1.13;;;2.90;99.90;;;;;;5104146;28;20039;-59
2022/01/05 01:03:40;;;;;;;9.27;0.90;;;2.90;99.90;;;;;;5105371;28;20047;-58
2022/01/05 01:06:06;;;;;;;7.67;1.13;;;2.80;99.90;;;;;;5067337;28;20407;-57
2022/01/05 01:08:32;;;;;;;9.82;1.60;;;2.80;99.90;;;;;;5105311;28;20038;-59
2022/01/05 01:10:58;;;;;;;7.72;1.35;;;2.80;99.90;;;;;;5103366;28;20099;-59
2022/01/05 01:13:24;;;;;;;31.33;2.53;;;2.70;99.90;;;;;;5101245;28;20040;-59
2022/01/05 01:15:51;;;;;;;14.10;1.38;;;2.70;99.90;;;;;;5105725;28;20618;-58
2022/01/05 01:18:18;;;;;;;12.35;1.40;;;2.60;99.90;;;;;;5099272;28;20101;-59
2022/01/05 01:20:45;;;;;;;9.75;1.30;;;2.60;99.90;;;;;;5102915;28;20065;-60
2022/01/05 01:23:11;;;;;;;8.15;1.20;;;2.60;99.90;;;;;;5099734;28;20128;-58
2022/01/05 01:25:37;;;;;;;11.70;1.98;;;2.50;99.90;;;;;;5111209;28;20480;-58
2022/01/05 01:28:03;;;;;;;9.13;1.00;;;2.50;99.90;;;;;;5099398;28;20069;-58
2022/01/05 01:30:31;;;;;;;8.73;2.30;;;2.50;99.90;;;;;;5081073;28;20097;-58
2022/01/05 01:32:57;;;;;;;5.85;0.82;;;2.50;99.90;;;;;;5104578;28;20089;-59
2022/01/05 01:35:23;;;;;;;6.82;1.05;;;2.50;99.90;;;;;;5099379;28;20045;-58
2022/01/05 01:37:49;;;;;;;10.57;1.02;;;2.60;99.90;;;;;;5108427;28;20249;-59
2022/01/05 01:40:14;;;;;;;9.43;1.07;;;2.50;99.90;;;;;;5099700;28;20036;-59
2022/01/05 01:42:40;;;;;;;14.83;0.87;;;2.50;99.90;;;;;;5102842;28;20164;-58
2022/01/05 01:45:06;;;;;;;17.15;2.10;;;2.50;99.90;;;;;;5103904;28;20047;-59
2022/01/05 01:47:32;;;;;;;6.38;0.77;;;2.50;99.90;;;;;;5094328;28;20124;-58
2022/01/05 01:49:58;;;;;;;6.70;1.33;;;2.50;99.90;;;;;;5104425;28;20115;-59
2022/01/05 01:52:23;;;;;;;11.00;1.07;;;2.60;99.90;;;;;;5085885;28;20030;-59
2022/01/05 01:54:49;;;;;;;7.77;1.10;;;2.50;99.90;;;;;;5099065;28;20060;-59
2022/01/05 01:57:15;;;;;;;11.93;1.30;;;2.50;99.90;;;;;;5108259;28;20032;-58
2022/01/05 01:59:42;;;;;;;8.40;2.70;;;2.50;99.90;;;;;;5098839;28;20031;-59
2022/01/05 02:02:08;;;;;;;10.18;1.40;;;2.50;99.90;;;;;;5098290;28;20032;-58
2022/01/05 02:04:36;;;;;;;9.20;1.55;;;2.50;99.90;;;;;;5085851;28;20043;-59
2022/01/05 02:07:03;;;;;;;8.60;1.70;;;2.50;99.90;;;;;;5098633;28;20473;-57
2022/01/05 02:09:29;;;;;;;14.50;1.20;;;2.50;99.90;;;;;;5108533;28;20040;-58
2022/01/05 02:11:54;;;;;;;15.27;1.33;;;2.50;99.90;;;;;;5106637;28;20067;-59
2022/01/05 02:14:20;;;;;;;7.60;1.17;;;2.50;99.90;;;;;;5099703;28;20040;-58
2022/01/05 02:16:46;;;;;;;8.73;1.40;;;2.60;99.90;;;;;;5085207;28;20036;-58
2022/01/05 02:19:13;;;;;;;6.50;0.63;;;2.60;99.90;;;;;;5103760;28;20177;-58
2022/01/05 02:21:39;;;;;;;8.48;1.10;;;2.50;99.90;;;;;;5098394;28;20536;-58
2022/01/05 02:24:08;;;;;;;16.42;1.33;;;2.60;99.90;;;;;;5100328;28;20028;-59
2022/01/05 02:26:34;;;;;;;7.43;1.10;;;2.60;99.90;;;;;;5103464;28;20028;-58
2022/01/05 02:28:59;;;;;;;13.30;1.13;;;2.60;99.90;;;;;;5097188;28;20115;-58
2022/01/05 02:31:26;;;;;;;5.67;0.77;;;2.60;99.90;;;;;;5095855;28;20123;-59
2022/01/05 02:33:52;;;;;;;11.50;1.73;;;2.60;99.90;;;;;;5106862;28;20285;-56
2022/01/05 02:36:20;;;;;;;12.23;0.88;;;2.60;99.90;;;;;;5092718;28;20048;-58
2022/01/05 02:38:51;;;;;;;15.68;1.20;;;2.60;99.90;;;;;;5103455;28;20036;-58
2022/01/05 02:41:17;;;;;;;10.23;1.45;;;2.60;99.90;;;;;;5096294;28;20040;-59
2022/01/05 02:43:44;;;;;;;10.70;0.93;;;2.60;99.90;;;;;;5100098;28;20039;-59
2022/01/05 02:46:15;;;;;;;23.05;2.78;;;2.60;99.90;;;;;;5079788;28;20043;-59
2022/01/05 02:48:41;;;;;;;12.05;1.88;;;2.60;99.90;;;;;;5104943;28;20043;-58
2022/01/05 02:51:09;;;;;;;11.93;0.95;;;2.60;99.90;;;;;;5103499;28;20047;-59
2022/01/05 02:53:34;;;;;;;11.40;0.95;;;2.60;99.90;;;;;;5100981;28;20040;-59
2022/01/05 02:56:00;;;;;;;8.03;1.60;;;2.60;99.90;;;;;;5103157;28;20173;-59
2022/01/05 02:58:26;;;;;;;8.88;0.80;;;2.60;99.90;;;;;;5102971;28;20351;-59
2022/01/05 03:00:52;;;;;;;11.32;1.60;;;2.60;99.90;;;;;;5102678;28;20042;-58
2022/01/05 03:03:17;;;;;;;12.57;1.20;;;2.60;99.90;;;;;;5098121;28;20032;-59
2022/01/05 03:05:43;;;;;;;12.10;1.17;;;2.60;99.90;;;;;;5102662;28;20503;-56
2022/01/05 03:08:09;;;;;;;7.77;1.17;;;2.60;99.90;;;;;;5095365;28;20103;-59
2022/01/05 03:10:35;;;;;;;15.47;3.17;;;2.60;99.90;;;;;;5104628;28;20369;-59
2022/01/05 03:13:00;;;;;;;11.30;1.38;;;2.50;99.90;;;;;;5102408;28;20032;-58
2022/01/05 03:15:26;;;;;;;9.23;2.20;;;2.50;99.90;;;;;;5097518;28;20047;-59
2022/01/05 03:17:52;;;;;;;15.07;1.63;;;2.60;99.90;;;;;;5105595;28;20050;-58
2022/01/05 03:20:17;;;;;;;12.23;1.67;;;2.60;99.90;;;;;;5098883;28;20036;-59
2022/01/05 03:22:44;;;;;;;17.77;1.40;;;2.60;99.90;;;;;;5098326;28;20511;-59
2022/01/05 03:25:17;;;;;;;13.80;1.52;;;2.50;99.90;;;;;;5083780;28;20388;-59
2022/01/05 03:27:47;;;;;;;12.38;2.15;;;2.50;99.90;;;;;;5086440;28;20036;-59
2022/01/05 03:30:15;;;;;;;7.55;1.00;;;2.50;99.90;;;;;;5097448;28;20043;-60
2022/01/05 03:33:01;;;;;;;7.45;1.15;;;2.50;99.90;;;;;;5102412;28;20043;-60
2022/01/05 03:35:29;;;;;;;12.23;1.23;;;2.50;99.90;;;;;;5100968;28;20054;-60
2022/01/05 03:37:54;;;;;;;15.68;1.98;;;2.50;99.90;;;;;;5086584;28;20043;-59
2022/01/05 03:40:20;;;;;;;9.73;1.33;;;2.50;99.90;;;;;;5097195;28;20028;-59
2022/01/05 03:42:46;;;;;;;16.02;2.65;;;2.50;99.90;;;;;;5100368;28;20046;-59
2022/01/05 03:45:12;;;;;;;5.27;1.00;;;2.50;99.90;;;;;;5103391;28;20031;-59
2022/01/05 03:47:38;;;;;;;9.83;1.67;;;2.50;99.90;;;;;;5106866;28;20600;-57
2022/01/05 03:50:04;;;;;;;11.57;0.98;;;2.50;99.90;;;;;;5070211;28;20043;-60
2022/01/05 03:52:30;;;;;;;15.45;2.80;;;2.50;99.90;;;;;;5105285;28;20069;-59
2022/01/05 03:54:55;;;;;;;11.67;1.03;;;2.50;99.90;;;;;;5106316;28;20481;-59
2022/01/05 03:57:21;;;;;;;12.70;2.07;;;2.50;99.90;;;;;;5109947;28;20501;-59
2022/01/05 03:59:47;;;;;;;7.70;1.27;;;2.50;99.90;;;;;;5104599;28;20039;-59
2022/01/05 04:02:12;;;;;;;15.43;2.27;;;2.50;99.90;;;;;;5106685;28;20040;-60
2022/01/05 04:04:38;;;;;;;18.43;1.87;;;2.60;99.90;;;;;;5110148;28;20733;-59
2022/01/05 04:07:04;;;;;;;13.63;1.73;;;2.50;99.90;;;;;;5091281;28;20047;-59
2022/01/05 04:09:30;;;;;;;12.20;1.67;;;2.60;99.90;;;;;;5106236;28;20068;-59
2022/01/05 04:11:55;;;;;;;7.45;2.45;;;2.50;99.90;;;;;;5111215;28;20036;-59
2022/01/05 04:14:21;;;;;;;4.90;1.70;;;2.50;99.90;;;;;;5111939;28;20036;-59
2022/01/05 04:16:46;;;;;;;12.37;1.20;;;2.50;99.90;;;;;;5104776;28;20507;-58
2022/01/05 04:19:12;;;;;;;9.10;1.83;;;2.50;99.90;;;;;;5103651;28;20048;-58
2022/01/05 04:21:38;;;;;;;11.50;1.10;;;2.50;99.90;;;;;;5107338;28;20028;-59
2022/01/05 04:24:03;;;;;;;7.47;1.73;;;2.50;99.90;;;;;;5107120;28;20579;-58
2022/01/05 04:26:29;;;;;;;9.82;1.40;;;2.50;99.90;;;;;;5090108;28;20043;-59
2022/01/05 04:28:54;;;;;;;10.27;1.27;;;2.60;99.90;;;;;;5099134;28;20040;-59
2022/01/05 04:31:21;;;;;;;10.40;2.00;;;2.60;99.90;;;;;;5107700;28;20052;-60
2022/01/05 04:33:47;;;;;;;8.93;1.87;;;2.60;99.90;;;;;;5099712;28;20046;-59
2022/01/05 04:36:13;;;;;;;12.07;0.93;;;2.60;99.90;;;;;;5108346;28;20036;-59
2022/01/05 04:38:38;;;;;;;9.67;1.67;;;2.60;99.90;;;;;;5102855;28;20088;-59
2022/01/05 04:41:04;;;;;;;22.37;2.60;;;2.60;99.90;;;;;;5102607;28;20396;-59
2022/01/05 04:43:30;;;;;;;14.63;1.40;;;2.60;99.90;;;;;;5092693;28;20108;-59
2022/01/05 04:45:55;;;;;;;13.53;2.27;;;2.70;99.90;;;;;;5104390;28;20310;-57
2022/01/05 04:48:21;;;;;;;8.37;2.30;;;2.70;99.90;;;;;;5111070;28;20032;-59
2022/01/05 04:50:46;;;;;;;12.07;2.83;;;2.70;99.90;;;;;;5103688;28;20085;-59
2022/01/05 04:53:13;;;;;;;17.77;1.93;;;2.70;99.90;;;;;;5114349;28;20526;-59
2022/01/05 04:55:42;;;;;;;18.17;1.83;;;2.80;99.90;;;;;;5106064;28;20120;-59
2022/01/05 04:58:08;;;;;;;10.38;2.10;;;2.80;99.90;;;;;;5105404;28;20164;-59
2022/01/05 05:00:34;;;;;;;14.98;1.65;;;2.90;99.90;;;;;;5104492;28;20032;-59
2022/01/05 05:03:00;;;;;;;17.08;2.80;;;2.90;99.90;;;;;;5103566;28;20416;-59
2022/01/05 05:05:26;;;;;;;14.40;1.50;;;3.00;99.90;;;;;;5102556;28;20033;-58
2022/01/05 05:07:51;;;;;;;8.98;2.00;;;3.00;99.90;;;;;;5074579;28;20127;-59
2022/01/05 05:10:17;;;;;;;11.50;1.20;;;3.00;99.90;;;;;;5105346;28;20108;-59
2022/01/05 05:12:43;;;;;;;15.57;2.17;;;3.00;99.90;;;;;;5103254;28;20039;-58
2022/01/05 05:15:08;;;;;;;7.77;1.40;;;3.00;99.90;;;;;;5102082;28;20036;-59
2022/01/05 05:17:34;;;;;;;15.90;1.98;;;3.00;99.90;;;;;;5088460;28;20055;-58
2022/01/05 05:20:00;;;;;;;16.20;2.37;;;3.00;99.90;;;;;;5110487;28;20039;-59
2022/01/05 05:22:25;;;;;;;14.17;2.03;;;3.00;99.90;;;;;;5104308;28;20454;-59
2022/01/05 05:24:51;;;;;;;11.57;1.60;;;2.90;99.90;;;;;;5103938;28;20578;-59
2022/01/05 05:27:16;;;;;;;11.97;1.27;;;2.90;99.90;;;;;;5103430;28;20044;-56
2022/01/05 05:29:42;;;;;;;15.97;2.83;;;3.00;99.90;;;;;;5096017;28;20040;-59
2022/01/05 05:32:08;;;;;;;15.27;2.10;;;3.00;99.90;;;;;;5104665;28;20048;-59
2022/01/05 05:34:34;;;;;;;18.05;2.47;;;3.00;99.90;;;;;;5095979;28;20412;-59
2022/01/05 05:36:59;;;;;;;19.40;2.50;;;3.00;99.90;;;;;;5106147;28;20036;-59
2022/01/05 05:39:25;;;;;;;20.43;2.93;;;3.10;99.90;;;;;;5097723;28;20043;-58
2022/01/05 05:41:51;;;;;;;13.33;1.93;;;3.10;99.90;;;;;;5106181;28;20108;-59
2022/01/05 05:44:16;;;;;;;14.87;2.63;;;3.10;99.90;;;;;;5082199;28;20092;-58
2022/01/05 05:46:42;;;;;;;12.67;1.57;;;3.20;99.90;;;;;;5100631;28;20032;-59
2022/01/05 05:49:07;;;;;;;13.70;2.97;;;3.20;99.90;;;;;;5097161;28;20027;-58
2022/01/05 05:51:33;;;;;;;15.10;2.30;;;3.20;99.90;;;;;;5103245;28;20050;-58
2022/01/05 05:53:58;;;;;;;22.67;3.33;;;3.20;99.90;;;;;;5100025;28;20423;-58
2022/01/05 05:56:24;;;;;;;15.00;2.23;;;3.20;99.90;;;;;;5104759;28;20492;-58
2022/01/05 05:58:50;;;;;;;16.90;1.90;;;3.30;99.90;;;;;;5085582;28;20043;-56
2022/01/05 06:01:16;;;;;;;19.43;2.87;;;3.30;99.90;;;;;;5098759;28;20114;-57
2022/01/05 06:03:41;;;;;;;15.95;2.22;;;3.30;99.90;;;;;;5099417;28;20032;-58
2022/01/05 06:06:07;;;;;;;31.80;4.33;;;3.30;99.90;;;;;;5086616;28;20036;-59
2022/01/05 06:08:32;;;;;;;18.53;2.73;;;3.20;99.90;;;;;;5096229;28;20458;-59
2022/01/05 06:10:58;;;;;;;11.40;1.80;;;3.20;99.90;;;;;;5104897;28;20123;-58
2022/01/05 06:13:24;;;;;;;14.73;1.73;;;3.30;99.90;;;;;;5099604;28;20039;-59
2022/01/05 06:15:50;;;;;;;20.48;5.65;;;3.30;99.90;;;;;;5106095;28;20040;-58
2022/01/05 06:18:15;;;;;;;9.43;1.73;;;3.30;99.90;;;;;;5100250;28;20044;-58
2022/01/05 06:20:41;;;;;;;11.00;2.80;;;3.30;99.90;;;;;;5106052;28;20035;-58
2022/01/05 06:23:06;;;;;;;15.33;2.40;;;3.40;99.90;;;;;;5098934;28;20466;-56
2022/01/05 06:25:32;;;;;;;16.40;2.80;;;3.40;99.90;;;;;;5101135;28;20032;-59
2022/01/05 06:27:58;;;;;;;18.10;1.70;;;3.50;99.90;;;;;;5096002;28;20035;-57
2022/01/05 06:30:23;;;;;;;11.63;2.27;;;3.50;99.90;;;;;;5097505;28;20290;-57
2022/01/05 06:32:49;;;;;;;13.80;3.40;;;3.40;99.90;;;;;;5102912;28;20054;-59
2022/01/05 06:35:15;;;;;;;14.23;2.70;;;3.40;99.90;;;;;;5098743;28;20032;-58
2022/01/05 06:37:41;;;;;;;15.23;3.03;;;3.40;99.90;;;;;;5106324;28;20122;-58
2022/01/05 06:40:07;;;;;;;19.98;2.50;;;3.50;99.90;;;;;;5098458;28;20118;-59
2022/01/05 06:42:33;;;;;;;16.52;2.03;;;3.50;99.90;;;;;;5108331;28;20407;-57
2022/01/05 06:44:59;;;;;;;23.60;3.03;;;3.50;99.90;;;;;;5105736;28;20035;-58
2022/01/05 06:47:24;;;;;;;13.40;2.43;;;3.50;99.90;;;;;;5102565;28;20122;-59
2022/01/05 06:49:50;;;;;;;13.13;2.27;;;3.50;99.90;;;;;;5095118;28;20131;-59
2022/01/05 06:52:15;;;;;;;10.97;2.87;;;3.50;99.90;;;;;;5103233;28;20106;-58
2022/01/05 06:54:42;;;;;;;16.23;2.47;;;3.60;99.90;;;;;;5095261;28;20032;-58
2022/01/05 06:57:08;;;;;;;19.13;2.47;;;3.60;99.90;;;;;;5093860;28;20071;-59
2022/01/05 06:59:35;;;;;;;18.88;2.22;;;3.60;99.90;;;;;;5100608;28;20033;-59
2022/01/05 07:02:01;;;;;;;;;;;3.60;99.90;;;;;;5091605;28;20453;-58
2022/01/05 07:04:26;;;;;;;17.17;2.42;;;3.60;99.90;;;;;;5090762;28;19954;-60
2022/01/05 07:06:52;;;;;;;13.43;1.60;;;3.70;99.90;;;;;;5092139;28;20044;-59
2022/01/05 07:09:17;;;;;;;16.63;2.30;;;3.60;99.90;;;;;;5096448;28;20043;-59
2022/01/05 07:11:43;;;;;;;19.87;4.00;;;3.60;99.90;;;;;;5090337;28;20662;-58
2022/01/05 07:14:08;;;;;;;14.83;4.37;;;3.60;99.90;;;;;;5071849;28;20051;-59
2022/01/05 07:16:34;;;;;;;12.10;2.27;;;3.60;99.90;;;;;;5090457;28;20036;-59
2022/01/05 07:19:00;;;;;;;21.07;4.83;;;3.60;99.90;;;;;;5071876;28;20051;-58
2022/01/05 07:21:25;;;;;;;14.47;2.73;;;3.50;99.90;;;;;;5090603;28;20270;-58
2022/01/05 07:23:51;;;;;;;15.70;3.67;;;3.50;99.90;;;;;;5090592;28;20043;-59
2022/01/05 07:26:16;;;;;;;19.53;2.47;;;3.40;99.90;;;;;;5090110;28;20408;-59
2022/01/05 07:28:44;;;;;;;10.60;1.93;;;3.40;99.90;;;;;;5090001;28;20584;-59
2022/01/05 07:31:10;;;;;;;7.80;1.45;;;3.30;99.90;;;;;;5090495;28;20077;-59
2022/01/05 07:33:36;;;;;;;10.77;1.77;;;3.20;99.90;;;;;;5072298;28;20043;-59
2022/01/05 07:36:02;;;;;;;10.75;1.40;;;3.20;99.90;;;;;;5071986;28;20043;-58
2022/01/05 07:38:29;;;;;;;11.05;1.25;;;3.10;99.90;;;;;;5102260;28;20488;-60
2022/01/05 07:40:55;;;;;;;8.77;2.35;;;3.10;99.90;;;;;;5078452;28;20032;-59
2022/01/05 07:43:22;;;;;;;10.15;1.30;;;3.10;99.90;;;;;;5097688;28;20042;-57
2022/01/05 07:45:48;;;;;;;4.45;1.13;;;3.10;99.90;;;;;;5074838;28;20120;-58
2022/01/05 07:48:14;;;;;;;9.32;1.83;;;3.00;99.90;;;;;;5097455;28;20040;-58
2022/01/05 07:50:39;;;;;;;7.33;1.10;;;2.90;99.90;;;;;;5101183;28;20054;-58
2022/01/05 07:53:05;;;;;;;10.53;2.97;;;2.80;99.90;;;;;;5105192;28;20047;-59
2022/01/05 07:55:32;;;;;;;13.73;2.13;;;2.70;99.90;;;;;;5107083;28;20039;-59
2022/01/05 07:57:59;;;;;;;13.80;2.22;;;2.70;99.90;;;;;;5062291;28;20123;-59
2022/01/05 08:00:25;;;;;;;5.80;1.38;;;2.60;99.90;;;;;;5098943;28;20077;-59
2022/01/05 08:02:51;;;;;;;10.43;1.75;;;2.60;99.90;;;;;;5079994;28;20039;-58
2022/01/05 08:05:16;;;;;;;13.10;2.17;;;2.60;99.90;;;;;;5104879;28;20081;-59
2022/01/05 08:07:42;;;;;;;14.07;2.47;;;2.60;99.90;;;;;;5103770;28;20100;-58
2022/01/05 08:10:08;;;;;;;8.93;2.40;;;2.60;99.90;;;;;;5102480;28;20511;-59
2022/01/05 08:12:33;;;;;;;16.60;3.30;;;2.60;99.90;;;;;;5098545;28;20100;-58
2022/01/05 08:14:59;;;;;;;14.10;2.57;;;2.60;99.90;;;;;;5095949;28;20144;-60
2022/01/05 08:17:24;;;;;;;14.80;3.43;;;2.70;99.90;;;;;;5100271;28;20472;-60
2022/01/05 08:19:50;;;;;;;19.33;4.10;;;2.80;99.90;;;;;;5093822;28;20059;-59
2022/01/05 08:22:16;;;;;;;23.90;4.43;;;2.80;99.90;;;;;;5106034;28;20078;-57
2022/01/05 08:24:41;;;;;;;25.03;4.47;;;2.90;99.90;;;;;;5101105;28;20106;-57
2022/01/05 08:27:07;;;;;;;24.73;5.53;;;3.00;99.90;;;;;;5102640;28;20154;-57
2022/01/05 08:29:32;;;;;;;26.53;5.20;;;3.20;99.90;;;;;;5096437;28;20036;-56
2022/01/05 08:32:02;;;;;;;19.97;5.33;;;3.30;99.90;;;;;;5107986;28;20047;-56
2022/01/05 08:34:30;;;;;;;22.60;4.93;;;3.50;99.90;;;;;;5108457;28;20043;-58
2022/01/05 08:36:56;;;;;;;16.30;3.80;;;3.60;99.90;;;;;;5082065;28;20408;-57
2022/01/05 08:39:23;;;;;;;;;;;3.80;99.90;;;;;;5075490;28;20044;-56
2022/01/05 08:41:50;;;;;;;15.00;2.00;;;3.90;99.90;;;;;;5093594;28;19995;-57
2022/01/05 08:44:16;;;;;;;20.40;1.90;;;4.00;99.90;;;;;;5093568;28;20036;-59
2022/01/05 08:46:41;;;;;;;13.10;1.58;;;4.00;99.90;;;;;;5098226;28;20415;-58
2022/01/05 08:49:07;;;;;;;11.57;1.50;;;4.20;99.90;;;;;;5093237;28;20044;-58
2022/01/05 08:51:33;;;;;;;17.83;4.67;;;4.30;99.90;;;;;;5093473;28;20039;-59
2022/01/05 08:53:58;;;;;;;16.35;1.40;;;4.30;99.90;;;;;;5092925;28;20576;-59
2022/01/05 08:56:25;;;;;;;17.53;1.43;;;4.40;99.90;;;;;;5075151;28;20055;-59
2022/01/05 08:58:51;;;;;;;14.50;1.00;;;4.50;99.90;;;;;;5093170;28;20290;-59
2022/01/05 09:01:17;;;;;;;12.15;1.40;;;4.50;99.90;;;;;;5093302;28;20081;-59
2022/01/05 09:03:42;;;;;;;15.88;0.98;;;4.50;99.90;;;;;;5075366;28;20044;-59
2022/01/05 09:06:08;;;;;;;9.40;0.90;;;4.60;99.90;;;;;;5092597;28;20036;-59
2022/01/05 09:08:34;;;;;;;9.47;0.83;;;4.70;99.90;;;;;;5092745;28;20119;-59
2022/01/05 09:11:00;;;;;;;5.43;0.85;;;4.70;99.90;;;;;;5074702;28;20058;-59
2022/01/05 09:13:25;;;;;;;5.83;0.47;;;4.80;99.90;;;;;;5093312;28;20036;-59
2022/01/05 09:15:52;;;;;;;6.97;0.53;;;4.80;99.90;;;;;;5075023;28;20040;-59
2022/01/05 09:18:18;;;;;;;7.78;0.95;;;4.80;99.90;;;;;;5095341;28;20032;-59
2022/01/05 09:20:44;;;;;;;4.70;0.30;;;4.90;99.90;;;;;;5082849;28;20089;-59
2022/01/05 09:23:10;;;;;;;3.13;0.60;;;4.90;99.90;;;;;;5092579;28;20040;-59
2022/01/05 09:25:35;;;;;;;1.40;0.30;;;4.90;99.90;;;;;;5089108;28;20061;-59
2022/01/05 09:28:02;;;;;;;3.03;0.63;;;5.00;99.90;;;;;;5076038;28;20505;-59
2022/01/05 09:30:28;;;;;;;5.47;0.73;;;5.00;99.90;;;;;;5088121;28;20040;-58
2022/01/05 09:32:54;;;;;;;3.60;0.43;;;5.10;99.90;;;;;;5087396;28;20309;-59
2022/01/05 09:35:22;;;;;;;7.20;0.75;;;5.20;99.90;;;;;;5089459;28;20071;-59
2022/01/05 09:37:55;;;;;;;7.68;0.68;;;5.30;99.90;;;;;;5085898;28;20127;-58
2022/01/05 09:43:07;;;;;;;15.27;1.35;;;5.40;99.90;;;;;;5086088;28;20418;-59
2022/01/05 09:45:36;;;;;;;12.57;1.05;;;5.40;99.90;;;;;;5084817;28;20095;-58
2022/01/05 09:48:44;;;;;;;11.93;1.52;;;5.40;99.90;;;;;;5081869;28;20133;-58
2022/01/05 09:51:10;;;;;;;15.13;1.20;;;5.50;99.90;;;;;;5075480;28;20120;-59
2022/01/05 09:53:36;;;;;;;;;;;5.50;99.90;;;;;;5085154;28;20497;-59
2022/01/05 09:56:04;;;;;;;18.95;1.50;;;5.50;99.90;;;;;;5062321;28;19945;-59
2022/01/05 09:58:31;;;;;;;10.57;1.20;;;5.60;99.90;;;;;;5082187;28;20065;-58
2022/01/05 10:00:56;;;;;;;13.13;1.48;;;5.60;99.90;;;;;;5082034;28;20059;-57
2022/01/05 10:03:23;;;;;;;15.40;1.73;;;5.80;99.90;;;;;;5080714;28;20032;-58
2022/01/05 10:05:49;;;;;;;11.93;1.00;;;5.80;99.90;;;;;;5084110;28;20294;-59
2022/01/05 10:08:14;;;;;;;11.15;1.05;;;5.80;99.90;;;;;;5081711;28;20033;-58
2022/01/05 10:10:42;;;;;;;15.67;1.20;;;5.90;99.90;;;;;;5066013;28;20040;-58
2022/01/05 10:13:08;;;;;;;15.82;2.28;;;6.00;99.90;;;;;;5082833;28;20514;-59
2022/01/05 10:15:35;;;;;;;18.08;3.20;;;6.00;99.90;;;;;;5087127;28;20434;-59
2022/01/05 10:18:17;;;;;;;12.45;1.92;;;6.00;99.90;;;;;;5085099;28;20043;-56
2022/01/05 10:20:55;;;;;;;16.75;2.13;;;6.00;99.90;;;;;;5088352;28;20115;-57
2022/01/05 10:23:44;;;;;;;24.25;2.40;;;5.90;99.90;;;;;;5085319;28;20591;-57
2022/01/05 10:26:30;;;;;;;18.77;3.15;;;5.90;99.90;;;;;;5085774;28;20045;-57
2022/01/05 10:29:05;;;;;;;16.98;1.95;;;5.90;99.90;;;;;;5085673;28;20032;-58
2022/01/05 10:31:41;;;;;;;17.85;2.13;;;5.90;99.90;;;;;;5090277;28;20401;-58
2022/01/05 10:34:24;;;;;;;13.50;1.85;;;5.90;99.90;;;;;;5085981;28;20404;-58
2022/01/05 10:36:52;;;;;;;15.60;1.33;;;5.90;99.90;;;;;;5084889;28;20659;-58
2022/01/05 10:39:20;;;;;;;17.85;2.10;;;5.90;99.90;;;;;;5088413;28;20036;-55
2022/01/05 10:41:46;;;;;;;16.48;2.55;;;5.90;99.90;;;;;;5071758;28;20131;-59
2022/01/05 10:44:15;;;;;;;21.30;2.47;;;6.00;99.90;;;;;;5087424;28;20416;-57
2022/01/05 10:46:53;;;;;;;14.05;2.83;;;6.00;99.90;;;;;;5089272;28;20126;-58
2022/01/05 10:49:28;;;;;;;12.68;1.63;;;6.10;99.90;;;;;;5087800;28;20111;-58
2022/01/05 10:51:55;;;;;;;20.70;2.30;;;6.20;99.90;;;;;;5070248;28;20416;-58
2022/01/05 10:54:23;;;;;;;21.02;2.28;;;6.40;99.90;;;;;;5085465;28;20444;-58
2022/01/05 10:56:49;;;;;;;24.08;2.05;;;6.70;99.90;;;;;;5087542;28;20052;-59
2022/01/05 10:59:25;;;;;;;13.35;1.90;;;7.30;99.90;;;;;;5083505;28;20040;-59
2022/01/05 11:01:51;;;;;;;14.40;1.67;;;8.00;99.90;;;;;;5082234;28;20038;-57
2022/01/05 11:04:18;;;;;;;15.80;2.05;;;8.40;99.90;;;;;;5061551;28;20033;-59
2022/01/05 11:07:03;;;;;;;19.27;2.13;;;8.40;99.90;;;;;;5083789;28;20039;-58
2022/01/05 11:09:30;;;;;;;17.63;1.98;;;8.20;99.90;;;;;;5084536;28;20050;-59
2022/01/05 11:11:56;;;;;;;26.17;2.60;;;8.10;99.90;;;;;;5085028;28;20039;-58
2022/01/05 11:14:30;;;;;;;23.52;3.70;;;8.00;99.90;;;;;;5081278;28;20043;-58
2022/01/05 11:16:59;;;;;;;17.38;1.70;;;7.90;99.90;;;;;;5082904;28;20397;-58
2022/01/05 11:19:27;;;;;;;17.65;2.22;;;7.80;99.90;;;;;;5081913;28;20040;-57
2022/01/05 11:22:06;;;;;;;13.88;1.48;;;7.70;99.90;;;;;;5084214;28;20039;-57
2022/01/05 11:24:45;;;;;;;15.48;2.45;;;7.60;99.90;;;;;;5081154;28;20039;-57
2022/01/05 11:27:25;;;;;;;21.63;1.80;;;7.80;99.90;;;;;;5071169;28;20033;-59
2022/01/05 11:29:51;;;;;;;25.88;1.80;;;7.90;99.90;;;;;;5057054;28;20044;-57
2022/01/05 11:32:22;;;;;;;11.88;1.38;;;8.10;99.90;;;;;;5083397;28;20385;-58
2022/01/05 11:34:48;;;;;;;12.02;0.98;;;8.60;99.90;;;;;;5087610;28;20477;-58
2022/01/05 11:37:14;;;;;;;10.35;1.60;;;9.00;99.90;;;;;;5064228;28;20048;-58
2022/01/05 11:39:48;;;;;;;12.95;1.33;;;9.50;99.90;;;;;;5060320;28;20410;-58
2022/01/05 11:42:18;;;;;;;19.98;2.05;;;9.90;99.90;;;;;;5081203;28;20060;-57
2022/01/05 11:44:51;;;;;;;11.93;1.67;;;10.20;99.90;;;;;;5073336;28;20041;-58
2022/01/05 11:47:25;;;;;;;16.27;1.83;;;10.70;99.90;;;;;;5083021;28;20032;-59
2022/01/05 11:49:53;;;;;;;21.10;3.45;;;11.10;99.90;;;;;;5073666;28;20416;-59
2022/01/05 11:52:19;;;;;;;15.73;1.73;;;11.60;99.90;;;;;;5071782;28;20051;-59
2022/01/05 11:55:05;;;;;;;18.50;1.65;;;11.90;99.90;;;;;;5074612;28;20405;-59
2022/01/05 11:57:31;;;;;;;17.50;2.25;;;11.60;99.90;;;;;;5084204;28;20036;-59
2022/01/05 12:00:17;;;;;;;18.10;2.10;;;11.50;99.90;;;;;;5063882;28;20050;-59
2022/01/05 12:02:43;;;;;;;18.27;1.65;;;11.30;99.90;;;;;;5059374;28;20481;-59
2022/01/05 12:05:11;;;;;;;12.60;2.53;;;11.00;99.90;;;;;;5074000;28;20039;-59
2022/01/05 12:07:46;;;;;;;19.50;2.53;;;10.40;99.90;;;;;;5080457;28;20034;-59
2022/01/05 12:10:21;;;;;;;9.25;1.73;;;9.90;99.90;;;;;;5081260;28;20036;-58
2022/01/05 12:13:01;;;;;;;18.38;2.75;;;9.60;99.90;;;;;;5058813;28;20058;-57
2022/01/05 12:15:39;;;;;;;11.27;1.75;;;9.50;99.90;;;;;;5083003;28;20438;-60
2022/01/05 12:18:05;;;;;;;17.40;2.35;;;9.60;99.90;;;;;;5085503;28;20037;-59
2022/01/05 12:20:36;;;;;;;17.25;1.73;;;9.60;99.90;;;;;;5087217;28;20093;-58
2022/01/05 12:23:20;;;;;;;18.38;2.15;;;9.50;99.90;;;;;;5079905;28;20493;-58
2022/01/05 12:26:05;;;;;;;9.52;2.42;;;9.20;99.90;;;;;;5079666;28;20443;-58
2022/01/05 12:28:33;;;;;;;9.93;0.95;;;8.90;99.90;;;;;;5076499;28;20040;-58
2022/01/05 12:30:59;;;;;;;10.02;0.63;;;8.70;99.90;;;;;;5080942;28;20032;-58
2022/01/05 12:33:25;;;;;;;12.68;2.35;;;8.60;99.90;;;;;;5075356;28;20089;-59
2022/01/05 12:36:00;;;;;;;15.05;1.50;;;8.40;99.90;;;;;;5084435;28;20040;-58
2022/01/05 12:38:31;;;;;;;9.80;1.08;;;8.20;99.90;;;;;;5080859;28;20088;-59
2022/01/05 12:40:57;;;;;;;11.00;1.45;;;8.20;99.90;;;;;;5086178;28;20058;-59
2022/01/05 12:43:33;;;;;;;9.70;1.42;;;8.90;99.90;;;;;;5078507;28;20101;-59
2022/01/05 12:45:59;;;;;;;10.23;1.00;;;9.50;99.90;;;;;;5079912;28;20035;-60
2022/01/05 12:48:31;;;;;;;7.88;0.98;;;10.00;99.90;;;;;;5078997;28;20047;-57
2022/01/05 12:51:16;;;;;;;17.40;2.03;;;10.30;99.90;;;;;;5079162;28;20035;-59
2022/01/05 12:54:09;;;;;;;8.82;0.50;;;10.60;99.90;;;;;;5072950;28;20409;-59